createdAt,value
2023-05-05T00:00:10.503Z,13.02
2023-05-05T00:00:23.106Z,13.02
2023-05-05T00:00:34.865Z,13.02
2023-05-05T00:00:46.695Z,13.02
2023-05-05T00:00:58.453Z,13.03
2023-05-05T00:01:10.137Z,13.02
2023-05-05T00:01:21.888Z,13.03
2023-05-05T00:01:33.703Z,13.03
2023-05-05T00:01:45.566Z,13.00
2023-05-05T00:01:57.398Z,13.03
2023-05-05T00:02:09.291Z,13.03
2023-05-05T00:02:21.034Z,13.03
2023-05-05T00:02:32.778Z,13.03
2023-05-05T00:02:44.683Z,13.01
2023-05-05T00:02:56.481Z,13.00
2023-05-05T00:03:08.362Z,13.01
2023-05-05T00:03:21.105Z,13.03
2023-05-05T00:03:34.097Z,13.03
2023-05-05T00:03:46.027Z,13.00
2023-05-05T00:03:57.874Z,13.01
2023-05-05T00:04:09.535Z,13.02
2023-05-05T00:04:21.275Z,13.02
2023-05-05T00:04:33.050Z,13.02
2023-05-05T00:04:44.677Z,13.01
2023-05-05T00:04:56.395Z,13.02
2023-05-05T00:05:08.321Z,13.01
2023-05-05T00:05:20.095Z,13.02
2023-05-05T00:05:31.768Z,13.01
2023-05-05T00:05:43.451Z,13.01
2023-05-05T00:05:55.278Z,13.01
2023-05-05T00:06:07.463Z,13.00
2023-05-05T00:06:19.216Z,12.98
2023-05-05T00:06:30.929Z,12.98
2023-05-05T00:06:42.673Z,12.98
2023-05-05T00:06:54.361Z,12.97
2023-05-05T00:07:06.111Z,12.98
2023-05-05T00:07:17.877Z,12.97
2023-05-05T00:07:29.589Z,12.98
2023-05-05T00:07:41.363Z,12.97
2023-05-05T00:07:53.005Z,12.97
2023-05-05T00:08:04.879Z,12.97
2023-05-05T00:08:16.668Z,12.97
2023-05-05T00:08:28.421Z,12.95
2023-05-05T00:08:40.235Z,12.96
2023-05-05T00:08:51.957Z,12.96
2023-05-05T00:09:03.749Z,12.94
2023-05-05T00:09:15.446Z,12.95
2023-05-05T00:09:27.152Z,12.95
2023-05-05T00:09:38.816Z,12.95
2023-05-05T00:09:50.543Z,12.95
2023-05-05T00:10:02.436Z,12.94
2023-05-05T00:10:14.183Z,12.93
2023-05-05T00:10:25.937Z,12.93
2023-05-05T00:10:37.672Z,12.93
2023-05-05T00:10:50.716Z,12.93
2023-05-05T00:11:02.437Z,12.93
2023-05-05T00:11:15.521Z,12.92
2023-05-05T00:11:27.273Z,12.93
2023-05-05T00:11:38.944Z,12.93
2023-05-05T00:11:50.603Z,12.92
2023-05-05T00:12:02.396Z,12.90
2023-05-05T00:12:14.083Z,12.92
2023-05-05T00:12:25.840Z,12.92
2023-05-05T00:12:37.620Z,12.91
2023-05-05T00:12:49.477Z,12.91
2023-05-05T00:13:01.294Z,12.92
2023-05-05T00:13:13.614Z,12.88
2023-05-05T00:13:25.442Z,12.92
2023-05-05T00:13:38.650Z,12.92
2023-05-05T00:13:50.728Z,12.92
2023-05-05T00:14:02.470Z,12.92
2023-05-05T00:14:14.325Z,12.90
2023-05-05T00:14:26.017Z,12.91
2023-05-05T00:14:37.730Z,12.90
2023-05-05T00:14:49.535Z,12.90
2023-05-05T00:15:01.303Z,12.90
2023-05-05T00:15:12.956Z,12.89
2023-05-05T00:15:24.864Z,12.89
2023-05-05T00:15:36.680Z,12.90
2023-05-05T00:15:50.756Z,12.89
2023-05-05T00:16:02.519Z,12.88
2023-05-05T00:16:14.205Z,12.89
2023-05-05T00:16:26.005Z,12.87
2023-05-05T00:16:37.856Z,12.86
2023-05-05T00:16:49.600Z,12.88
2023-05-05T00:17:01.415Z,12.87
2023-05-05T00:17:13.357Z,12.86
2023-05-05T00:17:25.274Z,12.87
2023-05-05T00:17:37.075Z,12.86
2023-05-05T00:17:49.031Z,12.84
2023-05-05T00:18:00.774Z,12.86
2023-05-05T00:18:14.568Z,12.86
2023-05-05T00:18:26.314Z,12.84
2023-05-05T00:18:37.981Z,12.85
2023-05-05T00:18:49.659Z,12.85
2023-05-05T00:19:01.347Z,12.83
2023-05-05T00:19:13.233Z,12.85
2023-05-05T00:19:25.071Z,12.82
2023-05-05T00:19:36.745Z,12.85
2023-05-05T00:19:48.515Z,12.84
2023-05-05T00:20:00.204Z,12.84
2023-05-05T00:20:12.698Z,12.83
2023-05-05T00:20:24.394Z,12.81
2023-05-05T00:20:36.237Z,12.82
2023-05-05T00:20:48.608Z,12.81
2023-05-05T00:21:00.403Z,12.80
2023-05-05T00:21:12.097Z,12.81
2023-05-05T00:21:23.821Z,12.77
2023-05-05T00:21:35.497Z,12.80
2023-05-05T00:21:47.194Z,12.81
2023-05-05T00:21:58.914Z,12.79
2023-05-05T00:22:10.571Z,12.79
2023-05-05T00:22:22.277Z,12.79
2023-05-05T00:22:34.061Z,12.76
2023-05-05T00:22:45.803Z,12.79
2023-05-05T00:22:59.758Z,12.76
2023-05-05T00:23:11.492Z,12.77
2023-05-05T00:23:23.283Z,12.79
2023-05-05T00:23:35.043Z,12.77
2023-05-05T00:23:46.800Z,12.75
2023-05-05T00:23:58.425Z,12.76
2023-05-05T00:24:10.155Z,12.75
2023-05-05T00:24:21.831Z,12.75
2023-05-05T00:24:33.560Z,12.76
2023-05-05T00:24:45.350Z,12.75
2023-05-05T00:25:02.886Z,12.74
2023-05-05T00:25:14.765Z,12.75
2023-05-05T00:25:26.876Z,12.72
2023-05-05T00:25:38.831Z,12.74
2023-05-05T00:25:50.562Z,12.74
2023-05-05T00:26:02.316Z,12.73
2023-05-05T00:26:15.484Z,12.75
2023-05-05T00:26:31.308Z,12.73
2023-05-05T00:26:43.110Z,12.73
2023-05-05T00:26:55.194Z,12.73
2023-05-05T00:27:07.000Z,12.73
2023-05-05T00:27:18.837Z,12.72
2023-05-05T00:27:30.580Z,12.72
2023-05-05T00:27:42.296Z,12.70
2023-05-05T00:27:53.986Z,12.70
2023-05-05T00:28:05.770Z,12.70
2023-05-05T00:28:17.448Z,12.70
2023-05-05T00:28:29.130Z,12.70
2023-05-05T00:28:40.804Z,12.71
2023-05-05T00:28:52.544Z,12.69
2023-05-05T00:29:04.262Z,12.68
2023-05-05T00:29:15.969Z,12.69
2023-05-05T00:29:27.815Z,12.68
2023-05-05T00:29:39.534Z,12.68
2023-05-05T00:29:51.253Z,12.69
2023-05-05T00:30:03.168Z,12.69
2023-05-05T00:30:14.909Z,12.68
2023-05-05T00:30:27.055Z,12.67
2023-05-05T00:30:40.055Z,12.67
2023-05-05T00:30:51.914Z,12.67
2023-05-05T00:31:03.805Z,12.67
2023-05-05T00:31:15.530Z,12.65
2023-05-05T00:31:27.312Z,12.67
2023-05-05T00:31:39.098Z,12.67
2023-05-05T00:31:51.076Z,12.66
2023-05-05T00:32:02.722Z,12.65
2023-05-05T00:32:14.581Z,12.66
2023-05-05T00:32:26.263Z,12.64
2023-05-05T00:32:38.005Z,12.66
2023-05-05T00:32:50.014Z,12.65
2023-05-05T00:33:01.834Z,12.66
2023-05-05T00:33:14.003Z,12.64
2023-05-05T00:33:25.693Z,12.64
2023-05-05T00:33:37.365Z,12.64
2023-05-05T00:33:49.089Z,12.64
2023-05-05T00:34:00.865Z,12.63
2023-05-05T00:34:12.626Z,12.63
2023-05-05T00:34:24.464Z,12.63
2023-05-05T00:34:36.151Z,12.64
2023-05-05T00:34:47.766Z,12.61
2023-05-05T00:34:59.650Z,12.62
2023-05-05T00:35:11.395Z,12.62
2023-05-05T00:35:23.265Z,12.60
2023-05-05T00:35:35.487Z,12.61
2023-05-05T00:35:47.206Z,12.62
2023-05-05T00:35:58.914Z,12.61
2023-05-05T00:36:10.689Z,12.61
2023-05-05T00:36:22.383Z,12.59
2023-05-05T00:36:34.116Z,12.60
2023-05-05T00:36:45.766Z,12.62
2023-05-05T00:36:57.451Z,12.60
2023-05-05T00:37:09.198Z,12.59
2023-05-05T00:37:20.966Z,12.59
2023-05-05T00:37:32.838Z,12.58
2023-05-05T00:37:44.561Z,12.59
2023-05-05T00:37:56.214Z,12.60
2023-05-05T00:38:07.936Z,12.60
2023-05-05T00:38:19.641Z,12.60
2023-05-05T00:38:31.294Z,12.58
2023-05-05T00:38:42.934Z,12.59
2023-05-05T00:38:54.652Z,12.58
2023-05-05T00:39:06.361Z,12.58
2023-05-05T00:39:18.083Z,12.56
2023-05-05T00:39:29.885Z,12.56
2023-05-05T00:39:41.700Z,12.58
2023-05-05T00:39:53.339Z,12.56
2023-05-05T00:40:06.334Z,12.58
2023-05-05T00:40:18.235Z,12.58
2023-05-05T00:40:29.998Z,12.57
2023-05-05T00:40:41.648Z,12.58
2023-05-05T00:40:53.422Z,12.59
2023-05-05T00:41:05.174Z,12.58
2023-05-05T00:41:18.239Z,12.58
2023-05-05T00:41:30.004Z,12.57
2023-05-05T00:41:41.823Z,12.58
2023-05-05T00:41:53.505Z,12.57
2023-05-05T00:42:05.431Z,12.58
2023-05-05T00:42:17.105Z,12.56
2023-05-05T00:42:38.315Z,12.56
2023-05-05T00:42:50.471Z,12.56
2023-05-05T00:43:02.161Z,12.55
2023-05-05T00:43:13.899Z,12.53
2023-05-05T00:43:25.624Z,12.55
2023-05-05T00:43:37.424Z,12.55
2023-05-05T00:43:49.135Z,12.55
2023-05-05T00:44:00.915Z,12.55
2023-05-05T00:44:12.672Z,12.54
2023-05-05T00:44:41.655Z,12.55
2023-05-05T00:44:53.291Z,12.55
2023-05-05T00:45:05.973Z,12.53
2023-05-05T00:45:18.989Z,12.56
2023-05-05T00:45:30.964Z,12.56
2023-05-05T00:45:42.741Z,12.54
2023-05-05T00:46:01.125Z,12.55
2023-05-05T00:46:22.269Z,12.55
2023-05-05T00:46:35.295Z,12.55
2023-05-05T00:46:47.110Z,12.54
2023-05-05T00:46:58.972Z,12.54
2023-05-05T00:47:11.416Z,12.53
2023-05-05T00:47:23.201Z,12.53
2023-05-05T00:47:35.419Z,12.51
2023-05-05T00:47:50.487Z,12.52
2023-05-05T00:48:02.581Z,12.51
2023-05-05T00:48:14.420Z,12.52
2023-05-05T00:48:26.203Z,12.51
2023-05-05T00:48:37.913Z,12.52
2023-05-05T00:48:50.338Z,12.52
2023-05-05T00:49:02.179Z,12.50
2023-05-05T00:49:13.948Z,12.52
2023-05-05T00:49:25.819Z,12.51
2023-05-05T00:49:38.585Z,12.50
2023-05-05T00:49:50.740Z,12.51
2023-05-05T00:50:03.247Z,12.53
2023-05-05T00:50:23.032Z,12.52
2023-05-05T00:50:35.158Z,12.50
2023-05-05T00:50:46.867Z,12.51
2023-05-05T00:50:59.386Z,12.50
2023-05-05T00:51:11.222Z,12.52
2023-05-05T00:51:24.382Z,12.50
2023-05-05T00:51:36.582Z,12.48
2023-05-05T00:51:48.347Z,12.49
2023-05-05T00:52:00.258Z,12.49
2023-05-05T00:52:11.989Z,12.48
2023-05-05T00:52:24.303Z,12.46
2023-05-05T00:52:36.559Z,12.49
2023-05-05T00:52:48.933Z,12.48
2023-05-05T00:53:02.176Z,12.47
2023-05-05T00:53:14.161Z,12.47
2023-05-05T00:53:27.093Z,12.48
2023-05-05T00:53:38.763Z,12.46
2023-05-05T00:53:50.802Z,12.46
2023-05-05T00:54:02.775Z,12.46
2023-05-05T00:54:14.436Z,12.46
2023-05-05T00:54:26.200Z,12.43
2023-05-05T00:54:38.095Z,12.46
2023-05-05T00:54:49.910Z,12.45
2023-05-05T00:55:02.099Z,12.45
2023-05-05T00:55:14.135Z,12.45
2023-05-05T00:55:26.236Z,12.44
2023-05-05T00:55:38.084Z,12.43
2023-05-05T00:55:49.921Z,12.43
2023-05-05T00:56:01.904Z,12.42
2023-05-05T00:56:14.076Z,12.44
2023-05-05T00:56:27.453Z,12.43
2023-05-05T00:56:39.274Z,12.43
2023-05-05T00:56:51.628Z,12.41
2023-05-05T00:57:04.054Z,12.43
2023-05-05T00:57:15.878Z,12.42
2023-05-05T00:57:27.703Z,12.41
2023-05-05T00:57:39.685Z,12.41
2023-05-05T00:57:51.460Z,12.42
2023-05-05T00:58:03.571Z,12.40
2023-05-05T00:58:15.317Z,12.40
2023-05-05T00:58:28.223Z,12.42
2023-05-05T00:58:41.477Z,12.38
2023-05-05T00:58:53.690Z,12.43
2023-05-05T00:59:05.551Z,12.42
2023-05-05T00:59:17.329Z,12.42
2023-05-05T00:59:30.494Z,12.40
2023-05-05T00:59:43.223Z,12.41
2023-05-05T00:59:56.294Z,12.38
2023-05-05T01:00:09.263Z,12.37
2023-05-05T01:00:21.354Z,12.40
2023-05-05T01:00:34.218Z,12.39
2023-05-05T01:00:45.868Z,12.41
2023-05-05T01:00:57.665Z,12.39
2023-05-05T01:01:11.317Z,12.40
2023-05-05T01:01:23.214Z,12.39
2023-05-05T01:01:35.156Z,12.39
2023-05-05T01:01:47.016Z,12.39
2023-05-05T01:01:59.482Z,12.38
2023-05-05T01:02:11.337Z,12.38
2023-05-05T01:02:23.136Z,12.39
2023-05-05T01:02:34.937Z,12.38
2023-05-05T01:02:46.768Z,12.38
2023-05-05T01:02:59.567Z,12.36
2023-05-05T01:03:12.888Z,12.37
2023-05-05T01:03:24.907Z,12.35
2023-05-05T01:03:38.261Z,12.37
2023-05-05T01:03:50.163Z,12.37
2023-05-05T01:04:02.087Z,12.37
2023-05-05T01:04:13.936Z,12.37
2023-05-05T01:04:26.352Z,12.37
2023-05-05T01:04:38.060Z,12.37
2023-05-05T01:04:49.814Z,12.37
2023-05-05T01:05:01.854Z,12.35
2023-05-05T01:05:15.611Z,12.37
2023-05-05T01:05:29.974Z,12.35
2023-05-05T01:05:50.499Z,12.36
2023-05-05T01:06:12.686Z,12.35
2023-05-05T01:06:41.757Z,12.35
2023-05-05T01:07:13.593Z,12.34
2023-05-05T01:07:35.693Z,12.35
2023-05-05T01:08:01.021Z,12.34
2023-05-05T01:08:27.607Z,12.32
2023-05-05T01:08:51.203Z,12.33
2023-05-05T01:09:11.360Z,12.33
2023-05-05T01:09:34.822Z,12.32
2023-05-05T01:10:04.222Z,12.32
2023-05-05T01:10:29.750Z,12.30
2023-05-05T01:10:48.008Z,12.31
2023-05-05T01:11:06.359Z,12.31
2023-05-05T01:11:25.364Z,12.32
2023-05-05T01:11:46.187Z,12.30
2023-05-05T01:12:10.485Z,12.30
2023-05-05T01:12:33.059Z,12.29
2023-05-05T01:12:53.612Z,12.29
2023-05-05T01:13:16.581Z,12.27
2023-05-05T01:13:37.246Z,12.27
2023-05-05T01:13:57.646Z,12.26
2023-05-05T01:14:14.461Z,12.26
2023-05-05T01:14:35.132Z,12.25
2023-05-05T01:14:59.738Z,12.25
2023-05-05T01:15:18.894Z,12.23
2023-05-05T01:15:34.168Z,12.24
2023-05-05T01:15:50.555Z,12.24
2023-05-05T01:16:11.970Z,12.23
2023-05-05T01:16:27.330Z,12.23
2023-05-05T01:16:50.415Z,12.23
2023-05-05T01:17:10.256Z,12.23
2023-05-05T01:17:28.873Z,12.23
2023-05-05T01:17:44.889Z,12.23
2023-05-05T01:18:02.708Z,12.23
2023-05-05T01:18:23.784Z,12.22
2023-05-05T01:18:41.366Z,12.22
2023-05-05T01:18:59.365Z,12.23
2023-05-05T01:19:28.531Z,12.22
2023-05-05T01:20:07.746Z,12.23
2023-05-05T01:20:25.014Z,12.24
2023-05-05T01:20:44.834Z,12.25
2023-05-05T01:21:08.895Z,12.23
2023-05-05T01:21:29.125Z,12.26
2023-05-05T01:21:43.713Z,12.27
2023-05-05T01:21:58.792Z,12.27
2023-05-05T01:22:14.691Z,12.29
2023-05-05T01:22:34.658Z,12.28
2023-05-05T01:22:50.967Z,12.27
2023-05-05T01:23:06.510Z,12.27
2023-05-05T01:23:30.820Z,12.28
2023-05-05T01:24:10.553Z,12.28
2023-05-05T01:24:41.678Z,12.29
2023-05-05T01:25:09.842Z,12.27
2023-05-05T01:25:41.197Z,12.26
2023-05-05T01:26:08.428Z,12.26
2023-05-05T01:26:47.475Z,12.27
2023-05-05T01:27:19.882Z,12.24
2023-05-05T01:27:47.926Z,12.25
2023-05-05T01:28:21.569Z,12.26
2023-05-05T01:29:07.832Z,12.25
2023-05-05T01:29:34.481Z,12.26
2023-05-05T01:30:02.011Z,12.24
2023-05-05T01:30:57.643Z,12.25
2023-05-05T01:31:20.811Z,12.25
2023-05-05T01:31:44.989Z,12.26
2023-05-05T01:32:00.014Z,12.27
2023-05-05T01:32:14.596Z,12.27
2023-05-05T01:32:28.652Z,12.24
2023-05-05T01:32:47.821Z,12.27
2023-05-05T01:33:06.294Z,12.27
2023-05-05T01:33:29.107Z,12.27
2023-05-05T01:33:46.116Z,12.24
2023-05-05T01:34:00.450Z,12.26
2023-05-05T01:34:16.622Z,12.27
2023-05-05T01:34:34.420Z,12.26
2023-05-05T01:34:53.722Z,12.25
2023-05-05T01:35:13.609Z,12.25
2023-05-05T01:35:29.876Z,12.24
2023-05-05T01:35:45.744Z,12.24
2023-05-05T01:36:04.109Z,12.23
2023-05-05T01:36:23.357Z,12.22
2023-05-05T01:36:37.970Z,12.22
2023-05-05T01:36:56.892Z,12.21
2023-05-05T01:37:14.952Z,12.22
2023-05-05T01:37:30.306Z,12.21
2023-05-05T01:37:47.605Z,12.21
2023-05-05T01:38:02.925Z,12.20
2023-05-05T01:38:18.532Z,12.19
2023-05-05T01:38:35.937Z,12.19
2023-05-05T01:38:51.439Z,12.20
2023-05-05T01:39:04.588Z,12.19
2023-05-05T01:39:17.856Z,12.19
2023-05-05T01:39:33.317Z,12.18
2023-05-05T01:39:49.932Z,12.18
2023-05-05T01:40:06.343Z,12.17
2023-05-05T01:40:24.923Z,12.18
2023-05-05T01:40:42.137Z,12.18
2023-05-05T01:41:01.308Z,12.18
2023-05-05T01:41:17.117Z,12.17
2023-05-05T01:41:36.401Z,12.17
2023-05-05T01:41:51.062Z,12.17
2023-05-05T01:42:06.304Z,12.18
2023-05-05T01:42:20.983Z,12.18
2023-05-05T01:42:35.048Z,12.20
2023-05-05T01:42:47.686Z,12.20
2023-05-05T01:43:01.647Z,12.20
2023-05-05T01:43:15.783Z,12.20
2023-05-05T01:43:30.622Z,12.23
2023-05-05T01:43:46.859Z,12.26
2023-05-05T01:44:04.753Z,12.25
2023-05-05T01:44:17.034Z,12.25
2023-05-05T01:44:32.910Z,12.26
2023-05-05T01:44:46.383Z,12.24
2023-05-05T01:45:00.155Z,12.26
2023-05-05T01:45:14.513Z,12.27
2023-05-05T01:45:32.053Z,12.26
2023-05-05T01:45:45.658Z,12.26
2023-05-05T01:45:59.971Z,12.27
2023-05-05T01:46:13.602Z,12.25
2023-05-05T01:46:27.743Z,12.26
2023-05-05T01:46:39.479Z,12.26
2023-05-05T01:46:54.313Z,12.26
2023-05-05T01:47:06.677Z,12.26
2023-05-05T01:47:20.957Z,12.24
2023-05-05T01:47:33.405Z,12.25
2023-05-05T01:47:46.818Z,12.25
2023-05-05T01:48:00.481Z,12.26
2023-05-05T01:48:15.118Z,12.26
2023-05-05T01:48:27.862Z,12.26
2023-05-05T01:48:42.309Z,12.26
2023-05-05T01:48:55.904Z,12.24
2023-05-05T01:49:09.852Z,12.24
2023-05-05T01:49:22.243Z,12.25
2023-05-05T01:49:35.614Z,12.26
2023-05-05T01:49:48.627Z,12.26
2023-05-05T01:50:01.676Z,12.25
2023-05-05T01:50:14.947Z,12.24
2023-05-05T01:50:28.214Z,12.26
2023-05-05T01:50:41.426Z,12.25
2023-05-05T01:50:54.017Z,12.22
2023-05-05T01:51:06.537Z,12.25
2023-05-05T01:51:21.015Z,12.21
2023-05-05T01:51:34.755Z,12.24
2023-05-05T01:51:49.166Z,12.25
2023-05-05T01:52:01.422Z,12.24
2023-05-05T01:52:14.515Z,12.24
2023-05-05T01:52:27.195Z,12.24
2023-05-05T01:52:41.110Z,12.24
2023-05-05T01:52:54.207Z,12.24
2023-05-05T01:53:07.895Z,12.24
2023-05-05T01:53:23.288Z,12.22
2023-05-05T01:53:36.318Z,12.22
2023-05-05T01:53:49.905Z,12.22
2023-05-05T01:54:04.519Z,12.22
2023-05-05T01:54:18.455Z,12.20
2023-05-05T01:54:33.446Z,12.20
2023-05-05T01:54:47.837Z,12.21
2023-05-05T01:55:04.965Z,12.21
2023-05-05T01:55:18.426Z,12.20
2023-05-05T01:55:32.148Z,12.23
2023-05-05T01:55:45.355Z,12.21
2023-05-05T01:55:58.333Z,12.22
2023-05-05T01:56:12.167Z,12.20
2023-05-05T01:56:26.094Z,12.23
2023-05-05T01:56:41.108Z,12.23
2023-05-05T01:56:57.117Z,12.22
2023-05-05T01:57:11.304Z,12.22
2023-05-05T01:57:25.770Z,12.23
2023-05-05T01:57:39.473Z,12.24
2023-05-05T01:57:53.148Z,12.22
2023-05-05T01:58:06.963Z,12.23
2023-05-05T01:58:21.524Z,12.22
2023-05-05T01:58:34.608Z,12.22
2023-05-05T01:58:47.395Z,12.21
2023-05-05T01:59:01.280Z,12.21
2023-05-05T01:59:13.814Z,12.21
2023-05-05T01:59:28.482Z,12.21
2023-05-05T01:59:40.189Z,12.21
2023-05-05T01:59:53.660Z,12.20
2023-05-05T02:00:07.859Z,12.21
2023-05-05T02:00:27.223Z,12.21
2023-05-05T02:00:40.034Z,12.21
2023-05-05T02:00:54.019Z,12.21
2023-05-05T02:01:08.535Z,12.20
2023-05-05T02:01:21.726Z,12.18
2023-05-05T02:01:37.422Z,12.20
2023-05-05T02:01:50.809Z,12.19
2023-05-05T02:02:04.161Z,12.19
2023-05-05T02:02:16.584Z,12.20
2023-05-05T02:02:28.854Z,12.20
2023-05-05T02:02:41.648Z,12.19
2023-05-05T02:02:55.765Z,12.19
2023-05-05T02:03:09.333Z,12.16
2023-05-05T02:03:22.852Z,12.19
2023-05-05T02:03:37.570Z,12.18
2023-05-05T02:03:50.733Z,12.20
2023-05-05T02:04:05.006Z,12.19
2023-05-05T02:04:18.461Z,12.17
2023-05-05T02:04:32.769Z,12.19
2023-05-05T02:04:45.727Z,12.18
2023-05-05T02:04:58.953Z,12.19
2023-05-05T02:05:12.509Z,12.19
2023-05-05T02:05:26.422Z,12.18
2023-05-05T02:05:39.670Z,12.18
2023-05-05T02:05:52.147Z,12.21
2023-05-05T02:06:05.719Z,12.20
2023-05-05T02:06:19.245Z,12.20
2023-05-05T02:06:32.444Z,12.16
2023-05-05T02:06:46.476Z,12.20
2023-05-05T02:06:59.553Z,12.20
2023-05-05T02:07:12.791Z,12.20
2023-05-05T02:07:25.533Z,12.20
2023-05-05T02:07:37.997Z,12.21
2023-05-05T02:07:51.223Z,12.20
2023-05-05T02:08:05.273Z,12.20
2023-05-05T02:08:17.995Z,12.21
2023-05-05T02:08:31.429Z,12.21
2023-05-05T02:08:44.675Z,12.21
2023-05-05T02:08:57.560Z,12.22
2023-05-05T02:09:12.781Z,12.22
2023-05-05T02:09:26.453Z,12.21
2023-05-05T02:09:39.145Z,12.19
2023-05-05T02:09:51.910Z,12.21
2023-05-05T02:10:06.765Z,12.19
2023-05-05T02:10:19.112Z,12.21
2023-05-05T02:10:31.686Z,12.21
2023-05-05T02:10:44.425Z,12.21
2023-05-05T02:10:58.115Z,12.21
2023-05-05T02:11:12.049Z,12.21
2023-05-05T02:11:24.984Z,12.21
2023-05-05T02:11:38.111Z,12.20
2023-05-05T02:11:50.193Z,12.21
2023-05-05T02:12:04.558Z,12.19
2023-05-05T02:12:19.238Z,12.20
2023-05-05T02:12:32.657Z,12.19
2023-05-05T02:12:47.107Z,12.20
2023-05-05T02:13:00.645Z,12.20
2023-05-05T02:13:13.207Z,12.21
2023-05-05T02:13:25.328Z,12.19
2023-05-05T02:13:38.538Z,12.17
2023-05-05T02:13:51.514Z,12.18
2023-05-05T02:14:05.259Z,12.19
2023-05-05T02:14:19.274Z,12.19
2023-05-05T02:14:33.126Z,12.19
2023-05-05T02:14:45.799Z,12.18
2023-05-05T02:15:01.307Z,12.16
2023-05-05T02:15:15.659Z,12.20
2023-05-05T02:15:29.021Z,12.22
2023-05-05T02:15:43.904Z,12.22
2023-05-05T02:15:57.129Z,12.21
2023-05-05T02:16:09.599Z,12.22
2023-05-05T02:16:22.571Z,12.21
2023-05-05T02:16:36.391Z,12.21
2023-05-05T02:16:48.908Z,12.20
2023-05-05T02:17:01.781Z,12.22
2023-05-05T02:17:16.014Z,12.20
2023-05-05T02:17:29.963Z,12.22
2023-05-05T02:17:42.777Z,12.21
2023-05-05T02:17:55.385Z,12.22
2023-05-05T02:18:07.292Z,12.22
2023-05-05T02:18:20.497Z,12.22
2023-05-05T02:18:33.273Z,12.22
2023-05-05T02:18:46.214Z,12.21
2023-05-05T02:19:01.495Z,12.22
2023-05-05T02:19:15.089Z,12.20
2023-05-05T02:19:29.801Z,12.18
2023-05-05T02:19:44.156Z,12.19
2023-05-05T02:19:58.644Z,12.19
2023-05-05T02:20:14.007Z,12.20
2023-05-05T02:20:27.691Z,12.20
2023-05-05T02:20:40.883Z,12.16
2023-05-05T02:20:52.997Z,12.19
2023-05-05T02:21:05.386Z,12.20
2023-05-05T02:21:17.499Z,12.21
2023-05-05T02:21:29.198Z,12.19
2023-05-05T02:21:41.551Z,12.21
2023-05-05T02:21:53.357Z,12.21
2023-05-05T02:22:05.247Z,12.22
2023-05-05T02:22:18.340Z,12.21
2023-05-05T02:22:30.070Z,12.20
2023-05-05T02:22:42.017Z,12.22
2023-05-05T02:22:53.792Z,12.21
2023-05-05T02:23:08.213Z,12.21
2023-05-05T02:23:20.172Z,12.22
2023-05-05T02:23:32.397Z,12.23
2023-05-05T02:23:45.996Z,12.21
2023-05-05T02:23:58.387Z,12.22
2023-05-05T02:24:10.529Z,12.23
2023-05-05T02:24:22.383Z,12.21
2023-05-05T02:24:34.466Z,12.23
2023-05-05T02:24:46.303Z,12.24
2023-05-05T02:24:58.412Z,12.24
2023-05-05T02:25:10.305Z,12.25
2023-05-05T02:25:23.497Z,12.25
2023-05-05T02:25:38.621Z,12.26
2023-05-05T02:25:55.116Z,12.24
2023-05-05T02:26:09.113Z,12.27
2023-05-05T02:26:23.671Z,12.25
2023-05-05T02:26:39.531Z,12.26
2023-05-05T02:26:53.024Z,12.23
2023-05-05T02:27:07.555Z,12.25
2023-05-05T02:27:21.680Z,12.25
2023-05-05T02:27:35.911Z,12.26
2023-05-05T02:27:49.242Z,12.24
2023-05-05T02:28:02.542Z,12.24
2023-05-05T02:28:23.121Z,12.23
2023-05-05T02:28:40.630Z,12.24
2023-05-05T02:29:02.172Z,12.25
2023-05-05T02:29:18.670Z,12.24
2023-05-05T02:29:34.617Z,12.24
2023-05-05T02:29:48.861Z,12.23
2023-05-05T02:30:06.699Z,12.23
2023-05-05T02:30:20.465Z,12.23
2023-05-05T02:30:36.329Z,12.21
2023-05-05T02:30:57.633Z,12.25
2023-05-05T02:31:12.215Z,12.26
2023-05-05T02:31:27.708Z,12.27
2023-05-05T02:31:45.277Z,12.24
2023-05-05T02:32:03.568Z,12.24
2023-05-05T02:32:23.359Z,12.25
2023-05-05T02:32:39.187Z,12.26
2023-05-05T02:32:56.215Z,12.26
2023-05-05T02:33:14.115Z,12.26
2023-05-05T02:33:29.099Z,12.25
2023-05-05T02:33:43.143Z,12.26
2023-05-05T02:33:57.861Z,12.26
2023-05-05T02:34:11.135Z,12.26
2023-05-05T02:34:26.985Z,12.26
2023-05-05T02:34:41.069Z,12.26
2023-05-05T02:34:58.553Z,12.26
2023-05-05T02:35:14.923Z,12.26
2023-05-05T02:35:34.710Z,12.25
2023-05-05T02:35:47.285Z,12.26
2023-05-05T02:36:07.429Z,12.25
2023-05-05T02:36:22.864Z,12.26
2023-05-05T02:36:41.340Z,12.26
2023-05-05T02:36:56.950Z,12.26
2023-05-05T02:37:15.452Z,12.25
2023-05-05T02:37:31.733Z,12.26
2023-05-05T02:37:48.205Z,12.27
2023-05-05T02:38:02.994Z,12.25
2023-05-05T02:38:23.754Z,12.26
2023-05-05T02:38:40.216Z,12.27
2023-05-05T02:38:56.471Z,12.26
2023-05-05T02:39:14.374Z,12.26
2023-05-05T02:39:35.576Z,12.27
2023-05-05T02:39:58.820Z,12.24
2023-05-05T02:40:15.217Z,12.24
2023-05-05T02:40:30.105Z,12.24
2023-05-05T02:40:44.753Z,12.23
2023-05-05T02:41:01.691Z,12.23
2023-05-05T02:41:18.265Z,12.21
2023-05-05T02:41:33.111Z,12.21
2023-05-05T02:41:50.314Z,12.23
2023-05-05T02:42:10.710Z,12.21
2023-05-05T02:42:25.733Z,12.22
2023-05-05T02:42:40.676Z,12.21
2023-05-05T02:42:57.272Z,12.20
2023-05-05T02:43:17.962Z,12.22
2023-05-05T02:43:31.982Z,12.20
2023-05-05T02:43:46.169Z,12.21
2023-05-05T02:44:00.812Z,12.20
2023-05-05T02:44:18.176Z,12.21
2023-05-05T02:44:32.952Z,12.22
2023-05-05T02:44:45.937Z,12.22
2023-05-05T02:45:01.890Z,12.22
2023-05-05T02:45:18.201Z,12.22
2023-05-05T02:45:32.866Z,12.20
2023-05-05T02:45:45.598Z,12.22
2023-05-05T02:46:00.002Z,12.22
2023-05-05T02:46:13.112Z,12.22
2023-05-05T02:46:28.262Z,12.20
2023-05-05T02:46:40.805Z,12.24
2023-05-05T02:46:53.972Z,12.24
2023-05-05T02:47:07.807Z,12.23
2023-05-05T02:47:21.904Z,12.24
2023-05-05T02:47:36.453Z,12.22
2023-05-05T02:47:48.873Z,12.24
2023-05-05T02:48:02.492Z,12.24
2023-05-05T02:48:14.862Z,12.25
2023-05-05T02:48:27.702Z,12.25
2023-05-05T02:48:39.546Z,12.25
2023-05-05T02:48:51.369Z,12.26
2023-05-05T02:49:03.034Z,12.26
2023-05-05T02:49:15.159Z,12.25
2023-05-05T02:49:27.560Z,12.24
2023-05-05T02:49:43.838Z,12.25
2023-05-05T02:49:55.531Z,12.23
2023-05-05T02:50:08.987Z,12.23
2023-05-05T02:50:23.366Z,12.22
2023-05-05T02:50:50.119Z,12.24
2023-05-05T02:51:09.151Z,12.23
2023-05-05T02:51:22.553Z,12.24
2023-05-05T02:51:34.284Z,12.22
2023-05-05T02:51:50.967Z,12.22
2023-05-05T02:52:11.817Z,12.21
2023-05-05T02:52:25.429Z,12.21
2023-05-05T02:52:37.735Z,12.20
2023-05-05T02:52:49.521Z,12.19
2023-05-05T02:53:04.365Z,12.19
2023-05-05T02:53:16.435Z,12.21
2023-05-05T02:53:29.324Z,12.19
2023-05-05T02:53:41.089Z,12.18
2023-05-05T02:53:53.166Z,12.18
2023-05-05T02:54:05.417Z,12.16
2023-05-05T02:54:17.505Z,12.16
2023-05-05T02:54:31.309Z,12.17
2023-05-05T02:54:43.133Z,12.16
2023-05-05T02:55:01.870Z,12.16
2023-05-05T02:55:16.713Z,12.17
2023-05-05T02:55:33.412Z,12.17
2023-05-05T02:55:51.601Z,12.16
2023-05-05T02:56:17.902Z,12.11
2023-05-05T02:56:40.872Z,12.12
2023-05-05T02:56:54.364Z,12.14
2023-05-05T02:57:06.609Z,12.13
2023-05-05T02:57:26.622Z,12.13
2023-05-05T02:57:49.692Z,12.13
2023-05-05T02:58:06.219Z,12.13
2023-05-05T02:58:29.048Z,12.11
2023-05-05T02:58:48.490Z,12.10
2023-05-05T02:59:14.449Z,12.08
2023-05-05T02:59:43.928Z,12.08
2023-05-05T03:00:03.489Z,12.07
2023-05-05T03:00:22.866Z,12.07
2023-05-05T03:00:41.202Z,12.07
2023-05-05T03:01:02.532Z,12.05
2023-05-05T03:01:26.507Z,12.08
2023-05-05T03:01:50.931Z,12.05
2023-05-05T03:02:13.749Z,12.02
2023-05-05T03:02:31.348Z,12.04
2023-05-05T03:02:54.230Z,12.04
2023-05-05T03:03:10.054Z,12.04
2023-05-05T03:03:26.001Z,12.07
2023-05-05T03:03:44.639Z,12.07
2023-05-05T03:04:06.309Z,12.08
2023-05-05T03:04:27.058Z,12.07
2023-05-05T03:04:41.784Z,12.07
2023-05-05T03:05:00.571Z,12.08
2023-05-05T03:05:19.691Z,12.09
2023-05-05T03:05:37.588Z,12.05
2023-05-05T03:05:53.914Z,12.08
2023-05-05T03:06:13.806Z,12.10
2023-05-05T03:06:29.215Z,12.10
2023-05-05T03:06:43.931Z,12.09
2023-05-05T03:07:03.034Z,12.09
2023-05-05T03:07:23.578Z,12.10
2023-05-05T03:07:40.681Z,12.10
2023-05-05T03:07:55.895Z,12.10